createdAt,value
2022-08-03T00:02:15.287Z,25.44
2022-08-03T00:04:42.225Z,25.13
2022-08-03T00:07:08.920Z,25.15
2022-08-03T00:09:36.003Z,25.18
2022-08-03T00:12:02.896Z,25.20
2022-08-03T00:14:29.724Z,25.29
2022-08-03T00:16:56.512Z,25.61
2022-08-03T00:19:23.178Z,25.45
2022-08-03T00:21:50.064Z,25.37
2022-08-03T00:24:16.819Z,25.39
2022-08-03T00:26:43.547Z,25.46
2022-08-03T00:29:10.215Z,25.17
2022-08-03T00:31:44.956Z,24.96
2022-08-03T00:34:29.866Z,24.70
2022-08-03T00:37:03.432Z,24.74
2022-08-03T00:39:30.151Z,24.79
2022-08-03T00:42:02.684Z,24.76
2022-08-03T00:44:29.370Z,24.75
2022-08-03T00:46:56.089Z,24.94
2022-08-03T00:49:23.771Z,24.99
2022-08-03T00:51:51.050Z,25.07
2022-08-03T00:54:17.969Z,24.41
2022-08-03T00:57:00.263Z,24.35
2022-08-03T00:59:27.547Z,24.13
2022-08-03T01:01:54.262Z,24.35
2022-08-03T01:04:20.938Z,24.33
2022-08-03T01:07:14.215Z,24.34
2022-08-03T01:09:49.987Z,24.37
2022-08-03T01:12:38.881Z,24.33
2022-08-03T01:15:08.484Z,24.51
2022-08-03T01:17:59.407Z,24.63
2022-08-03T01:20:33.395Z,24.32
2022-08-03T01:23:10.468Z,24.42
2022-08-03T01:26:14.351Z,24.28
2022-08-03T01:28:53.205Z,24.17
2022-08-03T01:31:28.527Z,23.92
2022-08-03T01:34:03.278Z,24.05
2022-08-03T01:36:37.889Z,23.86
2022-08-03T01:39:06.897Z,23.79
2022-08-03T01:41:38.949Z,24.01
2022-08-03T01:44:30.231Z,23.85
2022-08-03T01:47:01.086Z,24.00
2022-08-03T01:49:30.647Z,24.08
2022-08-03T01:52:05.022Z,23.84
2022-08-03T01:54:43.033Z,23.81
2022-08-03T01:57:10.858Z,24.03
2022-08-03T01:59:40.028Z,24.04
2022-08-03T02:02:32.145Z,23.94
2022-08-03T02:05:01.322Z,23.91
2022-08-03T02:07:30.327Z,23.67
2022-08-03T02:10:00.118Z,23.53
2022-08-03T02:12:28.664Z,23.57
2022-08-03T02:14:57.714Z,23.87
2022-08-03T02:17:39.650Z,23.68
2022-08-03T02:20:11.006Z,23.73
2022-08-03T02:22:42.008Z,23.74
2022-08-03T02:25:12.203Z,23.82
2022-08-03T02:27:46.148Z,23.47
2022-08-03T02:30:13.306Z,23.54
2022-08-03T02:32:44.053Z,23.31
2022-08-03T02:35:15.365Z,23.14
2022-08-03T02:37:50.155Z,23.34
2022-08-03T02:40:20.325Z,23.15
2022-08-03T02:42:51.814Z,23.60
2022-08-03T02:45:21.166Z,23.68
2022-08-03T02:47:53.827Z,23.78
2022-08-03T02:50:24.409Z,23.79
2022-08-03T02:52:54.925Z,23.65
2022-08-03T02:55:26.261Z,23.63
2022-08-03T02:57:55.836Z,23.74
2022-08-03T03:00:28.040Z,23.74
2022-08-03T03:03:02.484Z,23.35
2022-08-03T03:05:55.200Z,23.51
2022-08-03T03:08:26.115Z,23.06
2022-08-03T03:10:58.216Z,22.86
2022-08-03T03:13:28.339Z,22.87
2022-08-03T03:15:59.527Z,22.94
2022-08-03T03:18:31.076Z,23.02
2022-08-03T03:21:01.815Z,23.12
2022-08-03T03:23:28.993Z,22.99
2022-08-03T03:25:56.796Z,23.14
2022-08-03T03:28:25.511Z,22.79
2022-08-03T03:30:53.460Z,22.96
2022-08-03T03:33:22.081Z,22.86
2022-08-03T03:35:50.070Z,22.89
2022-08-03T03:38:16.885Z,22.86
2022-08-03T03:40:44.074Z,22.96
2022-08-03T03:43:12.771Z,22.98
2022-08-03T03:45:43.321Z,22.87
2022-08-03T03:48:10.234Z,22.56
2022-08-03T03:50:38.081Z,22.54
2022-08-03T03:53:05.000Z,22.47
2022-08-03T03:55:59.388Z,22.39
2022-08-03T03:58:27.756Z,22.28
2022-08-03T04:00:54.566Z,22.25
2022-08-03T04:03:21.481Z,22.52
2022-08-03T04:05:48.307Z,22.77
2022-08-03T04:08:17.775Z,22.49
2022-08-03T04:11:03.802Z,22.75
2022-08-03T04:13:53.671Z,22.59
2022-08-03T04:16:25.223Z,22.67
2022-08-03T04:19:00.843Z,22.78
2022-08-03T04:21:30.586Z,22.86
2022-08-03T04:24:03.442Z,22.96
2022-08-03T04:26:36.235Z,23.14
2022-08-03T04:29:05.844Z,23.04
2022-08-03T04:31:34.310Z,23.06
2022-08-03T04:34:02.790Z,22.63
2022-08-03T04:36:33.889Z,22.67
2022-08-03T04:39:04.379Z,22.84
2022-08-03T04:42:07.165Z,23.23
2022-08-03T04:44:28.363Z,23.20
2022-08-03T04:46:57.556Z,23.00
2022-08-03T04:49:25.997Z,22.77
2022-08-03T04:51:53.264Z,22.72
2022-08-03T04:54:20.053Z,22.66
2022-08-03T04:56:46.729Z,22.63
2022-08-03T04:59:13.545Z,22.52
2022-08-03T05:01:41.150Z,22.49
2022-08-03T05:04:08.155Z,22.30
2022-08-03T05:06:34.882Z,22.23
2022-08-03T05:09:02.101Z,22.21
2022-08-03T05:11:28.748Z,22.44
2022-08-03T05:13:55.560Z,22.69
2022-08-03T05:16:22.236Z,22.79
2022-08-03T05:18:48.922Z,22.55
2022-08-03T05:21:15.559Z,22.76
2022-08-03T05:23:43.129Z,23.21
2022-08-03T05:26:09.850Z,23.59
2022-08-03T05:28:36.536Z,23.57
2022-08-03T05:31:03.295Z,23.57
2022-08-03T05:33:30.111Z,23.57
2022-08-03T05:36:03.078Z,23.78
2022-08-03T05:38:35.035Z,23.85
2022-08-03T05:41:22.974Z,23.77
2022-08-03T05:43:54.970Z,23.59
2022-08-03T05:46:24.845Z,23.62
2022-08-03T05:48:52.176Z,23.80
2022-08-03T05:51:18.975Z,23.92
2022-08-03T05:53:46.032Z,23.98
2022-08-03T05:56:14.508Z,24.01
2022-08-03T05:58:50.283Z,24.07
2022-08-03T06:01:18.246Z,24.25
2022-08-03T06:03:45.731Z,24.15
2022-08-03T06:06:12.567Z,24.28
2022-08-03T06:08:40.651Z,24.23
2022-08-03T06:11:07.904Z,24.32
2022-08-03T06:13:35.289Z,23.99
2022-08-03T06:16:02.499Z,23.77
2022-08-03T06:18:29.328Z,24.30
2022-08-03T06:20:56.074Z,24.96
2022-08-03T06:23:25.335Z,25.70
2022-08-03T06:26:10.609Z,26.71
2022-08-03T06:28:52.264Z,27.91
2022-08-03T06:31:21.372Z,27.86
2022-08-03T06:34:30.509Z,27.68
2022-08-03T06:36:35.135Z,28.82
2022-08-03T06:39:02.671Z,29.29
2022-08-03T06:41:29.359Z,29.49
2022-08-03T06:44:02.652Z,29.56
2022-08-03T06:46:31.097Z,30.19
2022-08-03T06:48:57.934Z,30.64
2022-08-03T06:52:04.029Z,30.11
2022-08-03T06:54:11.460Z,30.39
2022-08-03T06:56:38.356Z,31.28
2022-08-03T06:59:05.249Z,30.90
2022-08-03T07:01:32.024Z,29.69
2022-08-03T07:03:58.824Z,29.37
2022-08-03T07:06:25.554Z,29.08
2022-08-03T07:08:55.413Z,29.50
2022-08-03T07:11:23.465Z,30.37
2022-08-03T07:13:50.214Z,30.85
2022-08-03T07:16:17.003Z,30.40
2022-08-03T07:18:44.520Z,29.05
2022-08-03T07:21:11.869Z,29.99
2022-08-03T07:23:38.910Z,31.28
2022-08-03T07:26:05.622Z,30.46
2022-08-03T07:28:32.306Z,29.92
2022-08-03T07:30:59.027Z,29.78
2022-08-03T07:33:25.717Z,29.54
2022-08-03T07:35:52.431Z,29.33
2022-08-03T07:38:21.005Z,29.09
2022-08-03T07:40:48.291Z,29.81
2022-08-03T07:43:15.002Z,29.88
2022-08-03T07:45:41.692Z,28.58
2022-08-03T07:48:12.083Z,29.72
2022-08-03T07:50:39.310Z,29.99
2022-08-03T07:53:06.088Z,29.25
2022-08-03T07:55:32.858Z,29.97
2022-08-03T07:58:02.597Z,30.52
2022-08-03T08:00:29.345Z,29.72
2022-08-03T08:02:56.178Z,30.07
2022-08-03T08:05:22.877Z,31.26
2022-08-03T08:07:51.759Z,32.09
2022-08-03T08:10:19.178Z,32.40
2022-08-03T08:12:45.959Z,31.06
2022-08-03T08:15:12.615Z,30.98
2022-08-03T08:17:48.057Z,30.98
2022-08-03T08:20:27.996Z,30.50
2022-08-03T08:23:03.540Z,31.11
2022-08-03T08:25:38.857Z,31.75
2022-08-03T08:28:31.516Z,32.40
2022-08-03T08:30:52.275Z,32.28
2022-08-03T08:33:22.606Z,31.91
2022-08-03T08:35:51.298Z,32.05
2022-08-03T08:38:17.982Z,32.55
2022-08-03T08:40:45.024Z,32.81
2022-08-03T08:43:11.786Z,32.69
2022-08-03T08:45:38.695Z,32.66
2022-08-03T08:48:09.455Z,31.55
2022-08-03T08:50:38.747Z,31.93
2022-08-03T08:53:17.537Z,32.17
2022-08-03T08:55:58.324Z,32.31
2022-08-03T08:58:30.337Z,32.04
2022-08-03T09:00:57.290Z,32.05
2022-08-03T09:03:30.222Z,32.69
2022-08-03T09:06:01.631Z,32.63
2022-08-03T09:08:34.125Z,32.68
2022-08-03T09:11:01.955Z,32.53
2022-08-03T09:13:28.976Z,33.14
2022-08-03T09:16:15.567Z,32.88
2022-08-03T09:18:45.087Z,32.94
2022-08-03T09:21:34.303Z,33.11
2022-08-03T09:24:06.348Z,32.34
2022-08-03T09:26:37.036Z,32.84
2022-08-03T09:29:13.919Z,32.13
2022-08-03T09:31:45.049Z,32.44
2022-08-03T09:34:17.499Z,32.64
2022-08-03T09:36:50.361Z,32.64
2022-08-03T09:39:19.846Z,31.65
2022-08-03T09:42:14.455Z,30.99
2022-08-03T09:44:47.122Z,30.25
2022-08-03T09:47:16.867Z,30.31
2022-08-03T09:49:57.896Z,29.72
2022-08-03T09:52:49.799Z,29.71
2022-08-03T09:56:31.574Z,29.72
2022-08-03T09:58:08.861Z,29.67
2022-08-03T10:01:04.559Z,30.02
2022-08-03T10:03:35.172Z,29.84
2022-08-03T10:06:16.668Z,30.21
2022-08-03T10:08:43.330Z,29.92
2022-08-03T10:11:10.005Z,30.36
2022-08-03T10:13:37.792Z,29.70
2022-08-03T10:16:21.201Z,30.08
2022-08-03T10:18:51.017Z,30.00
2022-08-03T10:21:20.149Z,30.34
2022-08-03T10:23:49.801Z,30.28
2022-08-03T10:26:22.427Z,30.19
2022-08-03T10:28:53.810Z,30.35
2022-08-03T10:31:23.834Z,30.32
2022-08-03T10:33:56.541Z,30.35
2022-08-03T10:36:28.223Z,30.02
2022-08-03T10:38:57.111Z,30.13
2022-08-03T10:41:31.865Z,30.02
2022-08-03T10:44:17.736Z,30.26
2022-08-03T10:46:47.179Z,30.10
2022-08-03T10:49:31.868Z,30.71
2022-08-03T10:52:08.411Z,30.78
2022-08-03T10:54:44.448Z,30.81
2022-08-03T10:57:43.530Z,30.56
2022-08-03T11:00:21.270Z,29.95
2022-08-03T11:03:06.156Z,30.64
2022-08-03T11:05:38.809Z,30.46
2022-08-03T11:08:19.466Z,30.80
2022-08-03T11:10:49.111Z,30.63
2022-08-03T11:13:18.478Z,30.49
2022-08-03T11:15:48.911Z,30.86
2022-08-03T11:18:16.129Z,30.91
2022-08-03T11:20:48.377Z,31.01
2022-08-03T11:23:16.798Z,30.69
2022-08-03T11:26:14.581Z,31.13
2022-08-03T11:28:43.728Z,31.27
2022-08-03T11:31:49.352Z,31.28
2022-08-03T11:34:16.923Z,31.00
2022-08-03T11:37:23.020Z,30.49
2022-08-03T11:39:52.837Z,31.03
2022-08-03T11:42:22.415Z,30.63
2022-08-03T11:44:50.296Z,30.98
2022-08-03T11:47:18.199Z,30.93
2022-08-03T11:49:49.881Z,31.19
2022-08-03T11:52:17.788Z,31.13
2022-08-03T11:54:44.864Z,31.54
2022-08-03T11:57:11.913Z,31.26
2022-08-03T11:59:38.856Z,31.17
2022-08-03T12:02:11.095Z,31.10
2022-08-03T12:05:09.949Z,31.19
2022-08-03T12:08:04.957Z,31.44
2022-08-03T12:10:33.355Z,31.20
2022-08-03T12:13:02.294Z,31.64
2022-08-03T12:15:31.748Z,31.40
2022-08-03T12:17:58.484Z,31.61
2022-08-03T12:20:34.640Z,31.39
2022-08-03T12:23:04.746Z,31.67
2022-08-03T12:25:39.141Z,31.35
2022-08-03T12:28:36.099Z,31.59
2022-08-03T12:31:08.906Z,32.10
2022-08-03T12:33:59.003Z,31.91
2022-08-03T12:36:27.046Z,31.32
2022-08-03T12:39:04.025Z,31.85
2022-08-03T12:41:34.408Z,31.99
2022-08-03T12:44:02.260Z,31.69
2022-08-03T12:46:41.652Z,31.57
2022-08-03T12:49:13.864Z,31.87
2022-08-03T12:51:43.562Z,31.34
2022-08-03T12:54:24.746Z,31.33
2022-08-03T12:57:06.959Z,31.65
2022-08-03T12:59:40.778Z,32.12
2022-08-03T13:02:19.868Z,31.45
2022-08-03T13:04:52.443Z,31.65
2022-08-03T13:07:21.492Z,31.91
2022-08-03T13:09:53.828Z,32.28
2022-08-03T13:12:29.249Z,32.43
2022-08-03T13:14:58.928Z,32.57
2022-08-03T13:17:27.100Z,32.58
2022-08-03T13:19:54.194Z,32.16
2022-08-03T13:22:26.095Z,32.18
2022-08-03T13:24:55.049Z,32.48
2022-08-03T13:28:01.662Z,32.47
2022-08-03T13:30:09.430Z,32.21
2022-08-03T13:32:36.666Z,32.39
2022-08-03T13:35:04.106Z,32.57
2022-08-03T13:37:31.559Z,32.40
2022-08-03T13:40:02.717Z,32.30
2022-08-03T13:42:32.193Z,32.78
2022-08-03T13:45:00.090Z,33.06
2022-08-03T13:47:27.675Z,32.74
2022-08-03T13:49:59.803Z,32.77
2022-08-03T13:52:33.341Z,32.58
2022-08-03T13:55:00.879Z,32.14
2022-08-03T13:58:04.904Z,32.63
2022-08-03T14:00:26.251Z,32.78
2022-08-03T14:03:03.943Z,32.59
2022-08-03T14:05:33.120Z,32.97
2022-08-03T14:08:04.222Z,33.12
2022-08-03T14:10:32.944Z,32.99
2022-08-03T14:12:59.643Z,33.37
2022-08-03T14:15:26.771Z,33.31
2022-08-03T14:17:53.424Z,33.08
2022-08-03T14:20:36.425Z,33.10
2022-08-03T14:23:08.701Z,33.41
2022-08-03T14:25:44.474Z,33.54
2022-08-03T14:28:21.656Z,33.42
2022-08-03T14:30:48.683Z,33.13
2022-08-03T14:33:15.739Z,33.54
2022-08-03T14:35:42.548Z,33.59
2022-08-03T14:38:09.236Z,33.59
2022-08-03T14:40:35.974Z,33.53
2022-08-03T14:43:02.703Z,33.61
2022-08-03T14:45:29.370Z,33.11
2022-08-03T14:50:29.394Z,33.38
2022-08-03T14:50:48.383Z,33.55
2022-08-03T14:53:17.617Z,33.30
2022-08-03T14:55:50.813Z,33.17
2022-08-03T14:58:27.143Z,33.19
2022-08-03T15:00:55.851Z,33.54
2022-08-03T15:03:24.745Z,33.80
2022-08-03T15:05:53.203Z,33.83
2022-08-03T15:08:20.470Z,34.14
2022-08-03T15:10:47.325Z,33.97
2022-08-03T15:13:17.090Z,34.14
2022-08-03T15:15:43.822Z,34.15
2022-08-03T15:18:10.966Z,34.08
2022-08-03T15:20:46.997Z,34.04
2022-08-03T15:23:15.618Z,33.78
2022-08-03T15:26:28.550Z,34.20
2022-08-03T15:28:33.471Z,34.23
2022-08-03T15:31:01.425Z,34.24
2022-08-03T15:33:29.099Z,34.14
2022-08-03T15:35:57.173Z,34.41
2022-08-03T15:38:26.870Z,34.20
2022-08-03T15:40:54.846Z,34.26
2022-08-03T15:43:22.297Z,34.17
2022-08-03T15:45:54.639Z,34.27
2022-08-03T15:48:35.669Z,34.55
2022-08-03T15:51:02.347Z,34.27
2022-08-03T15:53:29.021Z,34.38
2022-08-03T15:55:55.705Z,34.46
2022-08-03T15:59:09.608Z,34.01
2022-08-03T16:01:09.197Z,33.81
2022-08-03T16:03:35.934Z,34.09
2022-08-03T16:06:06.344Z,34.75
2022-08-03T16:08:34.007Z,34.77
2022-08-03T16:11:01.333Z,34.68
2022-08-03T16:14:13.820Z,34.64
2022-08-03T16:16:14.917Z,34.63
2022-08-03T16:18:41.619Z,34.76
2022-08-03T16:21:08.426Z,34.97
2022-08-03T16:23:39.171Z,34.57
2022-08-03T16:26:09.500Z,34.40
2022-08-03T16:28:36.180Z,34.47
2022-08-03T16:31:02.826Z,34.43
2022-08-03T16:33:30.645Z,34.34
2022-08-03T16:35:57.532Z,34.25
2022-08-03T16:38:24.269Z,34.16
2022-08-03T16:40:51.328Z,34.49
2022-08-03T16:43:19.835Z,34.13
2022-08-03T16:45:48.101Z,33.86
2022-08-03T16:48:16.525Z,34.12
2022-08-03T16:50:44.264Z,34.36
2022-08-03T16:53:16.388Z,34.63
2022-08-03T16:55:53.960Z,34.50
2022-08-03T16:58:41.525Z,34.41
2022-08-03T17:01:21.687Z,34.41
2022-08-03T17:04:04.750Z,34.15
2022-08-03T17:06:35.659Z,34.51
2022-08-03T17:09:11.982Z,34.18
2022-08-03T17:11:47.175Z,34.19
2022-08-03T17:14:16.782Z,34.43
2022-08-03T17:16:53.043Z,34.29
2022-08-03T17:19:24.530Z,33.91
2022-08-03T17:22:04.891Z,34.46
2022-08-03T17:24:33.354Z,34.02
2022-08-03T17:27:09.021Z,34.13
2022-08-03T17:29:51.296Z,34.31
2022-08-03T17:32:21.647Z,34.35
2022-08-03T17:34:49.011Z,34.30
2022-08-03T17:37:27.021Z,34.27
2022-08-03T17:40:04.214Z,34.20
2022-08-03T17:42:33.238Z,33.94
2022-08-03T17:45:03.848Z,34.01
2022-08-03T17:47:41.848Z,34.06
2022-08-03T17:50:25.230Z,34.25
2022-08-03T17:53:15.395Z,34.23
2022-08-03T17:59:51.629Z,33.97
2022-08-03T18:02:38.850Z,33.95
2022-08-03T18:05:17.580Z,33.79
2022-08-03T18:07:49.592Z,33.76
2022-08-03T18:10:26.364Z,33.65
2022-08-03T18:12:54.372Z,33.58
2022-08-03T18:15:28.684Z,33.55
2022-08-03T18:18:10.931Z,33.48
2022-08-03T18:20:41.564Z,33.32
2022-08-03T18:23:25.121Z,33.29
2022-08-03T18:26:07.756Z,33.30
2022-08-03T18:28:39.672Z,33.18
2022-08-03T18:31:11.623Z,33.11
2022-08-03T18:34:17.950Z,33.07
2022-08-03T18:36:29.999Z,32.63
2022-08-03T18:38:59.525Z,32.35
2022-08-03T18:41:33.484Z,32.36
2022-08-03T18:44:07.120Z,32.38
2022-08-03T18:46:35.868Z,32.14
2022-08-03T18:49:38.538Z,32.10
2022-08-03T18:52:21.639Z,32.02
2022-08-03T18:55:01.061Z,31.99
2022-08-03T18:58:06.340Z,31.89
2022-08-03T19:00:54.266Z,31.68
2022-08-03T19:03:25.515Z,31.61
2022-08-03T19:06:20.054Z,31.73
2022-08-03T19:09:04.272Z,31.70
2022-08-03T19:12:14.441Z,31.65
2022-08-03T19:14:43.129Z,31.37
2022-08-03T19:17:12.273Z,31.21
2022-08-03T19:19:44.993Z,31.13
2022-08-03T19:22:16.303Z,31.17
2022-08-03T19:24:46.233Z,31.01
2022-08-03T19:27:15.872Z,30.85
2022-08-03T19:29:58.924Z,30.75
2022-08-03T19:32:30.065Z,30.74
2022-08-03T19:34:59.603Z,30.40
2022-08-03T19:37:38.639Z,30.30
2022-08-03T19:40:14.493Z,30.35
2022-08-03T19:42:53.180Z,30.18
2022-08-03T19:46:04.881Z,30.16
2022-08-03T19:48:20.454Z,30.31
2022-08-03T19:50:53.094Z,30.13
2022-08-03T19:53:20.551Z,30.05
2022-08-03T19:55:54.168Z,29.80
2022-08-03T19:58:29.879Z,29.85
2022-08-03T20:00:56.675Z,29.62
2022-08-03T20:03:27.352Z,29.67
2022-08-03T20:06:10.578Z,29.31
2022-08-03T20:08:44.101Z,28.36
2022-08-03T20:11:11.476Z,28.70
2022-08-03T20:13:39.155Z,28.70
2022-08-03T20:16:06.376Z,28.69
2022-08-03T20:18:39.277Z,28.82
2022-08-03T20:21:14.800Z,28.99
2022-08-03T20:24:03.381Z,29.03
2022-08-03T20:26:33.466Z,29.06
2022-08-03T20:29:09.930Z,29.24
2022-08-03T20:31:37.516Z,29.29
2022-08-03T20:34:06.739Z,29.03
2022-08-03T20:36:33.533Z,28.92
2022-08-03T20:39:00.611Z,28.85
2022-08-03T20:41:27.432Z,28.93
2022-08-03T20:43:54.358Z,29.12
2022-08-03T20:46:31.802Z,29.06
2022-08-03T20:49:03.980Z,28.85
2022-08-03T20:51:52.715Z,28.76
2022-08-03T20:54:31.353Z,28.93
2022-08-03T20:57:00.465Z,28.62
2022-08-03T20:59:27.327Z,28.60
2022-08-03T21:01:54.769Z,28.85
2022-08-03T21:04:21.661Z,28.86
2022-08-03T21:06:54.276Z,28.97
2022-08-03T21:09:39.785Z,29.08
2022-08-03T21:12:12.113Z,29.28
2022-08-03T21:13:04.598Z,34.11
2022-08-03T21:14:51.925Z,29.10
2022-08-03T21:17:39.228Z,29.34
2022-08-03T21:20:09.489Z,29.37
2022-08-03T21:22:39.139Z,29.29
2022-08-03T21:25:08.926Z,29.40
2022-08-03T21:27:37.024Z,29.15
2022-08-03T21:30:09.711Z,29.04
2022-08-03T21:32:37.153Z,28.96
2022-08-03T21:35:04.321Z,28.85
2022-08-03T21:37:31.161Z,29.11
2022-08-03T21:39:58.009Z,28.51
2022-08-03T21:42:24.987Z,28.73
2022-08-03T21:44:52.972Z,28.74
2022-08-03T21:47:23.620Z,28.96
2022-08-03T21:50:08.830Z,28.87
2022-08-03T21:52:44.464Z,28.27
2022-08-03T21:55:20.439Z,28.48
2022-08-03T21:57:53.481Z,28.34
2022-08-03T22:00:22.892Z,28.21
2022-08-03T22:02:57.468Z,28.08
2022-08-03T22:05:42.733Z,28.21
2022-08-03T22:08:14.205Z,28.05
2022-08-03T22:10:44.673Z,28.32
2022-08-03T22:13:14.352Z,28.44
2022-08-03T22:15:42.219Z,28.23
2022-08-03T22:18:09.901Z,27.92
2022-08-03T22:20:37.396Z,28.05
2022-08-03T22:23:06.388Z,27.95
2022-08-03T22:25:38.268Z,27.99
2022-08-03T22:28:12.053Z,27.92
2022-08-03T22:30:40.472Z,28.09
2022-08-03T22:33:11.804Z,27.68
2022-08-03T22:35:50.211Z,27.45
2022-08-03T22:38:18.610Z,27.52
2022-08-03T22:40:48.233Z,27.35
2022-08-03T22:43:16.038Z,27.36
2022-08-03T22:46:08.970Z,27.65
2022-08-03T22:48:40.989Z,27.52
2022-08-03T22:51:09.103Z,27.58
2022-08-03T22:53:36.156Z,27.59
2022-08-03T22:56:03.467Z,27.40
2022-08-03T22:58:30.134Z,27.26
2022-08-03T23:01:08.547Z,27.23
2022-08-03T23:04:01.150Z,27.19
2022-08-03T23:06:36.910Z,27.10
2022-08-03T23:09:10.302Z,27.07
2022-08-03T23:11:45.607Z,27.16
2022-08-03T23:14:15.779Z,27.00
2022-08-03T23:16:46.256Z,26.84
2022-08-03T23:19:17.430Z,26.57
2022-08-03T23:22:02.513Z,26.81
2022-08-03T23:24:34.204Z,26.93
2022-08-03T23:27:03.716Z,26.93
2022-08-03T23:29:33.652Z,26.97
2022-08-03T23:32:01.841Z,27.01
2022-08-03T23:34:30.741Z,26.70
2022-08-03T23:37:01.191Z,26.80
2022-08-03T23:39:34.999Z,27.05
2022-08-03T23:42:03.131Z,26.90
2022-08-03T23:44:33.225Z,26.59
2022-08-03T23:47:00.097Z,26.48
2022-08-03T23:49:26.762Z,26.43
2022-08-03T23:52:19.132Z,26.39
2022-08-03T23:55:03.390Z,26.43
2022-08-03T23:57:36.859Z,26.32
